Time;durP1;ratioP1;P1;durP2;ratioP2;P2;SDS_P1;SDS_P2;PMS_P1;PMS_P2;Temp;Humidity;BMP_temperature;BMP_pressure;BME280_temperature;BME280_humidity;BME280_pressure;Samples;Min_cycle;Max_cycle;Signal;HPM_P1;HPM_P2
2021/10/12 00:01:49;;;;;;;32.67;24.33;;;9.60;99.90;;;;;;5113229;28;20020;-68
2021/10/12 00:04:15;;;;;;;38.40;26.50;;;9.60;99.90;;;;;;5113483;28;20023;-67
2021/10/12 00:06:41;;;;;;;38.75;26.17;;;9.60;99.90;;;;;;5094874;28;20383;-67
2021/10/12 00:09:07;;;;;;;41.20;27.27;;;9.50;99.90;;;;;;5094753;28;20035;-68
2021/10/12 00:11:33;;;;;;;44.42;27.58;;;9.50;99.90;;;;;;5113244;28;20076;-66
2021/10/12 00:13:59;;;;;;;41.10;28.85;;;9.60;99.90;;;;;;5113151;28;20472;-67
2021/10/12 00:16:25;;;;;;;42.65;27.83;;;9.60;99.90;;;;;;5112964;28;20119;-68
2021/10/12 00:18:51;;;;;;;46.85;29.98;;;9.60;99.90;;;;;;5113085;28;20112;-67
2021/10/12 00:21:17;;;;;;;44.30;28.70;;;;;;;;;;5113134;28;20038;-67
2021/10/12 00:23:43;;;;;;;40.03;27.42;;;9.50;99.90;;;;;;5113075;28;20443;-67
2021/10/12 00:26:09;;;;;;;41.63;27.13;;;9.50;99.90;;;;;;5113082;28;20028;-68
2021/10/12 00:28:35;;;;;;;46.83;28.17;;;9.50;99.90;;;;;;5112857;28;20063;-67
2021/10/12 00:31:03;;;;;;;40.80;25.83;;;9.50;99.90;;;;;;5112620;28;20062;-68
2021/10/12 00:33:29;;;;;;;42.00;27.30;;;9.50;99.90;;;;;;5112978;28;20107;-68
2021/10/12 00:35:55;;;;;;;45.88;28.73;;;9.50;99.90;;;;;;5112952;28;20468;-67
2021/10/12 00:38:22;;;;;;;43.10;27.85;;;9.50;99.90;;;;;;5112871;28;20024;-68
2021/10/12 00:40:48;;;;;;;40.92;27.73;;;9.50;99.90;;;;;;5113003;28;20024;-67
2021/10/12 00:43:14;;;;;;;45.30;28.73;;;9.50;99.90;;;;;;5113512;28;20132;-68
2021/10/12 00:45:41;;;;;;;41.42;28.67;;;9.50;99.90;;;;;;5116553;28;20038;-67
2021/10/12 00:48:09;;;;;;;45.03;28.58;;;9.50;99.90;;;;;;5098100;28;20031;-66
2021/10/12 00:50:39;;;;;;;43.72;28.02;;;9.40;99.90;;;;;;5116446;28;20369;-67
2021/10/12 00:53:05;;;;;;;42.53;28.52;;;9.40;99.90;;;;;;5098076;28;20023;-69
2021/10/12 00:55:32;;;;;;;45.92;27.88;;;9.50;99.90;;;;;;5116355;28;20028;-68
2021/10/12 00:58:01;;;;;;;43.17;27.30;;;9.50;99.90;;;;;;5116262;28;20043;-67
2021/10/12 01:00:27;;;;;;;42.83;28.55;;;9.50;99.90;;;;;;5116196;28;20015;-67
2021/10/12 01:02:52;;;;;;;43.00;28.52;;;9.40;99.90;;;;;;5097919;28;20024;-68
2021/10/12 01:05:19;;;;;;;41.70;28.85;;;9.50;99.90;;;;;;5116393;28;20027;-67
2021/10/12 01:07:45;;;;;;;50.05;29.15;;;9.50;99.90;;;;;;5116314;28;20038;-68
2021/10/12 01:10:11;;;;;;;40.42;27.95;;;9.50;99.90;;;;;;5115995;28;20032;-67
2021/10/12 01:12:38;;;;;;;46.95;29.05;;;9.40;99.90;;;;;;5116062;28;20032;-67
2021/10/12 01:15:06;;;;;;;49.78;29.27;;;9.50;99.90;;;;;;5115978;28;20084;-68
2021/10/12 01:17:32;;;;;;;39.80;28.30;;;9.40;99.90;;;;;;5094046;28;20054;-67
2021/10/12 01:19:59;;;;;;;44.78;29.13;;;9.50;99.90;;;;;;5095482;28;20028;-66
2021/10/12 01:22:25;;;;;;;44.53;28.00;;;9.50;99.90;;;;;;5095478;28;20360;-67
2021/10/12 01:24:51;;;;;;;43.92;29.05;;;9.40;99.90;;;;;;5094062;28;20031;-67
2021/10/12 01:27:21;;;;;;;43.20;28.58;;;9.50;99.90;;;;;;5093974;28;20028;-67
2021/10/12 01:29:47;;;;;;;42.22;27.58;;;9.40;99.90;;;;;;5093909;28;20067;-67
2021/10/12 01:32:13;;;;;;;45.47;28.60;;;9.40;99.90;;;;;;5095041;28;20067;-67
2021/10/12 01:34:39;;;;;;;39.20;25.88;;;9.40;99.90;;;;;;5093881;28;20035;-67
2021/10/12 01:37:05;;;;;;;37.67;26.48;;;9.40;99.90;;;;;;5095143;28;20052;-67
2021/10/12 01:39:31;;;;;;;43.95;27.20;;;9.40;99.90;;;;;;5093793;28;20039;-67
2021/10/12 01:41:57;;;;;;;38.45;26.23;;;9.50;99.90;;;;;;5093764;28;20036;-67
2021/10/12 01:44:23;;;;;;;40.70;25.67;;;9.40;99.90;;;;;;5094999;28;20024;-67
2021/10/12 01:46:49;;;;;;;38.22;25.35;;;9.40;99.90;;;;;;5093579;28;20444;-69
2021/10/12 01:49:15;;;;;;;35.20;24.30;;;9.40;99.90;;;;;;5094553;28;20028;-70
2021/10/12 01:51:41;;;;;;;38.50;24.33;;;9.40;99.90;;;;;;5094601;28;20485;-69
2021/10/12 01:54:18;;;;;;;35.30;24.42;;;9.50;99.90;;;;;;5093036;28;20085;-68
2021/10/12 01:56:46;;;;;;;37.25;25.73;;;9.40;99.90;;;;;;5094793;28;20469;-69
2021/10/12 01:59:12;;;;;;;36.58;24.48;;;9.50;99.90;;;;;;5094722;28;20073;-69
2021/10/12 02:01:38;;;;;;;36.63;23.60;;;9.50;99.90;;;;;;5094356;28;20489;-68
2021/10/12 02:04:04;;;;;;;41.10;25.55;;;9.40;99.90;;;;;;5094617;28;20025;-68
2021/10/12 02:06:30;;;;;;;37.70;22.73;;;9.40;99.90;;;;;;5094567;28;20106;-68
2021/10/12 02:08:55;;;;;;;37.22;24.95;;;9.50;99.90;;;;;;5094610;28;20476;-67
2021/10/12 02:11:21;;;;;;;36.03;23.08;;;9.40;99.90;;;;;;5094492;28;20059;-68
2021/10/12 02:13:47;;;;;;;42.70;24.02;;;9.40;99.90;;;;;;5093185;28;20028;-69
2021/10/12 02:16:19;;;;;;;38.80;25.30;;;9.40;99.90;;;;;;5092685;28;20549;-67
2021/10/12 02:18:47;;;;;;;;;;;9.40;99.90;;;;;;5094565;28;20424;-68
2021/10/12 02:21:13;;;;;;;35.03;23.58;;;9.40;99.90;;;;;;5094338;28;19926;-68
2021/10/12 02:23:38;;;;;;;42.72;26.85;;;9.40;99.90;;;;;;5093027;28;20032;-68
2021/10/12 02:26:10;;;;;;;40.92;26.52;;;9.40;99.90;;;;;;5092851;28;20028;-69
2021/10/12 02:28:36;;;;;;;44.92;27.65;;;9.50;99.90;;;;;;5094148;28;20028;-68
2021/10/12 02:31:02;;;;;;;41.55;27.05;;;9.40;99.90;;;;;;5092839;28;20036;-67
2021/10/12 02:33:28;;;;;;;44.70;27.92;;;9.40;99.90;;;;;;5094144;28;20030;-69
2021/10/12 02:35:54;;;;;;;42.75;27.60;;;9.50;99.90;;;;;;5094050;28;20020;-69
2021/10/12 02:38:20;;;;;;;41.05;28.08;;;9.50;99.90;;;;;;5092626;28;20032;-67
2021/10/12 02:40:49;;;;;;;46.30;29.17;;;9.50;99.90;;;;;;5092620;28;20072;-69
2021/10/12 02:43:15;;;;;;;42.70;28.02;;;9.50;99.90;;;;;;5092593;28;20031;-67
2021/10/12 02:45:41;;;;;;;48.83;29.15;;;9.50;99.90;;;;;;5093553;28;20103;-66
2021/10/12 02:48:07;;;;;;;46.33;27.98;;;9.40;99.90;;;;;;5092399;28;20178;-67
2021/10/12 02:50:32;;;;;;;47.25;27.27;;;9.40;99.90;;;;;;5093756;28;20032;-66
2021/10/12 02:52:58;;;;;;;48.13;29.27;;;9.50;99.90;;;;;;5093470;28;20024;-66
2021/10/12 02:55:24;;;;;;;48.17;30.65;;;9.40;99.90;;;;;;5093971;28;20032;-66
2021/10/12 02:57:50;;;;;;;45.25;28.35;;;9.40;99.90;;;;;;5093635;28;20024;-66
2021/10/12 03:00:16;;;;;;;46.00;29.90;;;9.40;99.90;;;;;;5093597;28;20100;-66
2021/10/12 03:02:42;;;;;;;57.50;32.13;;;9.50;99.90;;;;;;5093606;28;20132;-66
2021/10/12 03:05:08;;;;;;;46.63;30.25;;;;;;;;;;5093251;28;20107;-67
2021/10/12 03:07:34;;;;;;;48.97;31.13;;;9.40;99.90;;;;;;5092702;28;20074;-67
2021/10/12 03:10:01;;;;;;;52.17;32.22;;;9.40;99.90;;;;;;5092068;28;20476;-66
2021/10/12 03:12:27;;;;;;;53.00;31.50;;;9.40;99.90;;;;;;5092110;28;20043;-67
2021/10/12 03:14:53;;;;;;;53.08;31.77;;;9.40;99.90;;;;;;5093396;28;20024;-67
2021/10/12 03:17:19;;;;;;;53.38;32.20;;;9.40;99.90;;;;;;5106822;28;20051;-66
2021/10/12 03:19:45;;;;;;;50.03;32.70;;;9.40;99.90;;;;;;5095310;28;20027;-66
2021/10/12 03:22:13;;;;;;;51.42;32.42;;;9.40;99.90;;;;;;5113677;28;20036;-66
2021/10/12 03:24:39;;;;;;;53.88;33.25;;;9.40;99.90;;;;;;5113612;28;20019;-66
2021/10/12 03:27:11;;;;;;;58.13;33.00;;;9.40;99.90;;;;;;5113572;28;20019;-67
2021/10/12 03:29:38;;;;;;;49.75;32.83;;;9.40;99.90;;;;;;5113504;28;20027;-66
2021/10/12 03:32:08;;;;;;;51.25;31.02;;;9.40;99.90;;;;;;5095275;28;20062;-65
2021/10/12 03:34:36;;;;;;;50.38;32.13;;;9.40;99.90;;;;;;5113506;28;20106;-67
2021/10/12 03:37:03;;;;;;;58.85;34.95;;;9.40;99.90;;;;;;5113515;28;20027;-67
2021/10/12 03:39:29;;;;;;;50.45;32.70;;;9.40;99.90;;;;;;5113403;28;20034;-67
2021/10/12 03:41:56;;;;;;;51.97;31.38;;;9.40;99.90;;;;;;5113452;28;20024;-67
2021/10/12 03:44:23;;;;;;;52.25;31.55;;;9.50;99.90;;;;;;5113484;28;20031;-68
2021/10/12 03:46:50;;;;;;;49.08;29.88;;;9.40;99.90;;;;;;5113364;28;20103;-67
2021/10/12 03:49:16;;;;;;;50.80;31.88;;;9.40;99.90;;;;;;5094979;28;20032;-68
2021/10/12 03:51:43;;;;;;;46.97;31.67;;;9.40;99.90;;;;;;5113057;28;20024;-68
2021/10/12 03:54:11;;;;;;;50.08;31.55;;;9.40;99.90;;;;;;5113384;28;20051;-67
2021/10/12 03:56:36;;;;;;;49.42;31.50;;;9.40;99.90;;;;;;5094950;28;20031;-68
2021/10/12 03:59:02;;;;;;;51.33;31.85;;;9.40;99.90;;;;;;5094939;28;20036;-67
2021/10/12 04:01:29;;;;;;;51.08;31.65;;;;;;;;;;5113490;28;20477;-67
2021/10/12 04:03:55;;;;;;;45.78;30.77;;;9.40;99.90;;;;;;5113299;28;20086;-68
2021/10/12 04:06:20;;;;;;;48.40;31.35;;;9.30;99.90;;;;;;5094972;28;20379;-68
2021/10/12 04:08:46;;;;;;;51.80;32.28;;;9.40;99.90;;;;;;5113092;28;20036;-68
2021/10/12 04:11:12;;;;;;;51.13;31.75;;;9.30;99.90;;;;;;5113134;28;20053;-68
2021/10/12 04:13:38;;;;;;;51.00;30.98;;;9.30;99.90;;;;;;5113409;28;20374;-68
2021/10/12 04:16:04;;;;;;;54.22;32.63;;;9.30;99.90;;;;;;5112932;28;20399;-68
2021/10/12 04:18:30;;;;;;;50.15;32.80;;;9.30;99.90;;;;;;5115685;28;20032;-66
2021/10/12 04:20:56;;;;;;;54.80;33.85;;;9.30;99.90;;;;;;5117008;28;20027;-68
2021/10/12 04:23:22;;;;;;;54.75;32.65;;;9.30;99.90;;;;;;5116659;28;20379;-67
2021/10/12 04:25:48;;;;;;;54.10;34.25;;;9.30;99.90;;;;;;5116898;28;20106;-68
2021/10/12 04:28:15;;;;;;;53.72;34.03;;;9.30;99.90;;;;;;5116818;28;20114;-69
2021/10/12 04:30:43;;;;;;;54.72;32.53;;;9.30;99.90;;;;;;5116768;28;20070;-68
2021/10/12 04:33:09;;;;;;;53.45;32.40;;;9.20;99.90;;;;;;5116789;28;20031;-68
2021/10/12 04:35:36;;;;;;;54.75;35.78;;;9.20;99.90;;;;;;5116984;28;20408;-68
2021/10/12 04:38:02;;;;;;;53.78;34.33;;;9.20;99.90;;;;;;5116745;28;20061;-68
2021/10/12 04:40:32;;;;;;;54.85;34.40;;;9.20;99.90;;;;;;5116625;28;20456;-68
2021/10/12 04:43:01;;;;;;;54.08;32.72;;;9.20;99.90;;;;;;5116644;28;20028;-68
2021/10/12 04:45:27;;;;;;;54.50;33.13;;;;;;;;;;5116566;28;20023;-68
2021/10/12 04:47:53;;;;;;;53.80;32.00;;;;;;;;;;5098078;28;20023;-67
2021/10/12 04:50:20;;;;;;;47.83;31.98;;;;;;;;;;5098066;28;20467;-67
2021/10/12 04:52:46;;;;;;;57.75;35.33;;;;;;;;;;5116451;28;20031;-67
2021/10/12 04:55:13;;;;;;;51.80;33.70;;;;;;;;;;5098084;28;20462;-67
2021/10/12 04:57:39;;;;;;;53.88;34.10;;;;;;;;;;5098038;28;20027;-67
2021/10/12 05:00:06;;;;;;;51.20;33.40;;;;;;;;;;5116202;28;20050;-68
2021/10/12 05:02:32;;;;;;;49.95;32.50;;;;;;;;;;5116157;28;20023;-67
2021/10/12 05:04:58;;;;;;;53.30;33.50;;;;;;;;;;5097810;28;20406;-68
2021/10/12 05:07:25;;;;;;;80.18;42.55;;;;;;;;;;5097763;28;20376;-67
2021/10/12 05:09:51;;;;;;;86.85;46.15;;;;;;;;;;5115982;28;20031;-67
2021/10/12 05:12:18;;;;;;;78.90;45.67;;;;;;;;;;5116356;28;20466;-67
2021/10/12 05:14:44;;;;;;;66.47;40.40;;;;;;;;;;5116066;28;20494;-67
2021/10/12 05:19:56;;;;;;;68.30;40.60;;;;;;;;;;5115888;28;20042;-68
2021/10/12 05:22:22;;;;;;;70.35;45.25;;;;;;;;;;5097369;28;20034;-68
2021/10/12 05:24:48;;;;;;;72.07;49.28;;;;;;;;;;5115529;28;20106;-69
2021/10/12 05:27:14;;;;;;;70.30;44.97;;;;;;;;;;5097281;28;20471;-68
2021/10/12 05:29:40;;;;;;;68.63;41.78;;;;;;;;;;5114715;28;20067;-66
2021/10/12 05:32:06;;;;;;;60.35;38.92;;;;;;;;;;5115604;28;20064;-66
2021/10/12 05:34:32;;;;;;;54.88;36.90;;;9.30;99.90;;;;;;5115581;28;20485;-69
2021/10/12 05:36:58;;;;;;;56.63;35.20;;;;;;;;;;5115741;28;20159;-68
2021/10/12 05:39:24;;;;;;;56.78;35.03;;;9.20;99.90;;;;;;5076479;28;20099;-69
2021/10/12 05:41:50;;;;;;;58.95;35.08;;;;;;;;;;5093385;28;20026;-68
2021/10/12 05:44:16;;;;;;;56.30;34.25;;;;;;;;;;5095248;28;20188;-68
2021/10/12 05:46:42;;;;;;;59.97;36.00;;;;;;;;;;5094775;28;20063;-68
2021/10/12 05:49:09;;;;;;;55.83;34.75;;;;;;;;;;5076395;28;20070;-66
2021/10/12 05:51:35;;;;;;;55.35;34.20;;;;;;;;;;5076584;28;20524;-66
2021/10/12 05:54:02;;;;;;;58.95;36.22;;;;;;;;;;5094651;28;20032;-66
2021/10/12 05:56:37;;;;;;;63.38;37.35;;;;;;;;;;5094875;28;20043;-67
2021/10/12 05:59:03;;;;;;;59.53;36.80;;;;;;;;;;5076078;28;20031;-68
2021/10/12 06:01:29;;;;;;;59.35;37.20;;;;;;;;;;5092079;28;20024;-68
2021/10/12 06:03:55;;;;;;;55.38;36.85;;;9.40;99.90;;;;;;5114549;28;20024;-69
2021/10/12 06:06:21;;;;;;;56.70;36.33;;;9.40;99.90;;;;;;5114807;28;20081;-67
2021/10/12 06:08:47;;;;;;;65.32;36.85;;;9.40;99.90;;;;;;5096347;28;20027;-68
2021/10/12 06:11:13;;;;;;;59.75;37.50;;;9.40;99.90;;;;;;5114683;28;20035;-67
2021/10/12 06:13:40;;;;;;;61.20;36.38;;;;;;;;;;5096444;28;20032;-67
2021/10/12 06:16:06;;;;;;;61.67;36.75;;;9.30;99.90;;;;;;5114272;28;20088;-65
2021/10/12 06:18:32;;;;;;;55.67;35.25;;;;;;;;;;5114528;28;20028;-69
2021/10/12 06:20:58;;;;;;;59.42;35.80;;;9.40;99.90;;;;;;5114586;28;20045;-69
2021/10/12 06:23:25;;;;;;;59.25;35.35;;;;;;;;;;5114338;28;20035;-68
2021/10/12 06:25:53;;;;;;;57.00;37.83;;;9.30;99.90;;;;;;5114508;28;20028;-66
2021/10/12 06:28:21;;;;;;;63.88;40.30;;;9.50;99.90;;;;;;5095454;28;20062;-66
2021/10/12 06:30:47;;;;;;;64.57;39.05;;;9.40;99.90;;;;;;5094594;28;20034;-67
2021/10/12 06:33:13;;;;;;;62.10;39.05;;;9.40;99.90;;;;;;5113326;28;20407;-67
2021/10/12 06:35:39;;;;;;;52.15;35.33;;;9.50;99.90;;;;;;5113742;28;20024;-67
2021/10/12 06:38:07;;;;;;;62.33;37.63;;;9.50;99.90;;;;;;5114166;28;20032;-66
2021/10/12 06:40:33;;;;;;;57.78;38.40;;;9.40;99.90;;;;;;5114245;28;20020;-67
2021/10/12 06:43:00;;;;;;;57.40;36.92;;;9.50;99.90;;;;;;5095931;28;20020;-66
2021/10/12 06:45:27;;;;;;;57.78;36.50;;;9.40;99.90;;;;;;5114295;28;20553;-68
2021/10/12 06:47:53;;;;;;;61.53;37.53;;;9.50;99.90;;;;;;5114346;28;20564;-67
2021/10/12 06:50:21;;;;;;;61.20;36.28;;;9.50;99.90;;;;;;5114076;28;20107;-68
2021/10/12 06:52:47;;;;;;;62.58;37.88;;;9.50;99.90;;;;;;5095154;28;20028;-67
2021/10/12 06:55:14;;;;;;;64.13;38.03;;;9.60;99.90;;;;;;5114026;28;20026;-68
2021/10/12 06:57:41;;;;;;;68.30;39.17;;;9.50;99.90;;;;;;5113586;28;20051;-68
2021/10/12 07:00:11;;;;;;;60.38;36.00;;;9.60;99.90;;;;;;5114087;28;20027;-67
2021/10/12 07:02:37;;;;;;;64.20;37.60;;;9.60;99.90;;;;;;5113961;28;20104;-67
2021/10/12 07:08:26;;;;;;;51.47;33.75;;;9.70;99.90;;;;;;5035676;28;20133;-69
2021/10/12 07:10:54;;;;;;;55.92;35.40;;;9.70;99.90;;;;;;5031836;28;20541;-66
2021/10/12 07:13:24;;;;;;;53.03;34.97;;;9.70;99.90;;;;;;5033658;28;20060;-68
2021/10/12 07:15:50;;;;;;;56.20;35.67;;;9.70;99.90;;;;;;5050202;28;20044;-68
2021/10/12 07:18:18;;;;;;;57.75;34.92;;;9.70;99.90;;;;;;5050602;28;20048;-67
2021/10/12 07:20:45;;;;;;;51.78;34.20;;;9.70;99.90;;;;;;5050452;28;20065;-68
2021/10/12 07:23:11;;;;;;;47.65;30.08;;;9.70;99.90;;;;;;5033843;28;20551;-68
2021/10/12 07:25:36;;;;;;;50.78;32.67;;;9.60;99.90;;;;;;5050600;28;20029;-68
2021/10/12 07:28:02;;;;;;;51.22;32.90;;;9.70;99.90;;;;;;5050392;28;20068;-67
2021/10/12 07:30:28;;;;;;;50.90;32.38;;;9.70;99.90;;;;;;5050423;28;20123;-67
2021/10/12 07:32:54;;;;;;;57.28;34.33;;;9.70;99.90;;;;;;5050490;28;20521;-67
2021/10/12 07:35:20;;;;;;;56.13;34.85;;;9.70;99.90;;;;;;5046851;28;20071;-69
2021/10/12 07:37:46;;;;;;;61.08;38.65;;;9.70;99.90;;;;;;5043874;28;20029;-66
2021/10/12 07:40:12;;;;;;;63.30;38.22;;;9.70;99.90;;;;;;5092760;28;20108;-67
2021/10/12 07:42:39;;;;;;;71.63;40.85;;;9.70;99.90;;;;;;5074707;28;20361;-68
2021/10/12 07:45:05;;;;;;;59.33;37.30;;;9.70;99.90;;;;;;5093112;28;20586;-65
2021/10/12 07:47:31;;;;;;;54.53;36.30;;;9.70;99.90;;;;;;5074766;28;20039;-67
2021/10/12 07:49:57;;;;;;;60.22;36.53;;;9.70;99.90;;;;;;5092908;28;20039;-66
2021/10/12 07:52:23;;;;;;;52.45;32.55;;;9.70;99.90;;;;;;5093655;28;20024;-66
2021/10/12 07:55:00;;;;;;;53.65;33.85;;;9.80;99.90;;;;;;5097075;28;20450;-66
2021/10/12 07:57:26;;;;;;;62.33;36.25;;;9.80;99.90;;;;;;5097036;28;20035;-67
2021/10/12 07:59:52;;;;;;;58.17;38.08;;;9.80;99.90;;;;;;5096680;28;20097;-67
2021/10/12 08:02:17;;;;;;;57.03;38.42;;;9.90;99.90;;;;;;5096690;28;20464;-68
2021/10/12 08:04:43;;;;;;;51.30;35.50;;;9.90;99.90;;;;;;5096799;28;20036;-68
2021/10/12 08:07:10;;;;;;;64.10;42.25;;;9.90;99.90;;;;;;5096837;28;20027;-68
2021/10/12 08:09:36;;;;;;;46.92;32.92;;;10.00;99.90;;;;;;5096695;28;20085;-67
2021/10/12 08:12:04;;;;;;;47.78;31.77;;;10.00;99.90;;;;;;5096794;28;20456;-67
2021/10/12 08:14:33;;;;;;;49.40;32.28;;;10.00;99.90;;;;;;5078465;28;20035;-67
2021/10/12 08:16:59;;;;;;;52.60;32.00;;;10.00;99.90;;;;;;5078040;28;20058;-67
2021/10/12 08:19:25;;;;;;;51.97;36.63;;;10.00;99.90;;;;;;5096680;28;20032;-68
2021/10/12 08:21:50;;;;;;;47.92;32.00;;;10.00;99.90;;;;;;5096553;28;20027;-67
2021/10/12 08:24:19;;;;;;;49.13;31.15;;;10.10;99.90;;;;;;5078293;28;20025;-68
2021/10/12 08:26:46;;;;;;;54.72;31.33;;;10.10;99.90;;;;;;5096228;28;20435;-67
2021/10/12 08:29:12;;;;;;;46.38;30.42;;;10.20;99.90;;;;;;5096348;28;20028;-69
2021/10/12 08:31:37;;;;;;;50.42;31.48;;;10.30;99.90;;;;;;5096330;28;20082;-68
2021/10/12 08:34:03;;;;;;;59.60;38.03;;;10.30;99.90;;;;;;5078024;28;20035;-67
2021/10/12 08:36:29;;;;;;;48.50;30.25;;;10.30;99.90;;;;;;5078036;28;20156;-67
2021/10/12 08:38:56;;;;;;;46.20;31.85;;;10.40;99.90;;;;;;5095530;28;20034;-68
2021/10/12 08:41:29;;;;;;;41.30;28.90;;;10.40;99.90;;;;;;5094220;28;20532;-68
2021/10/12 08:43:56;;;;;;;45.65;30.33;;;10.40;99.90;;;;;;5094830;28;20012;-70
2021/10/12 08:46:28;;;;;;;40.75;26.75;;;10.50;99.90;;;;;;5095946;28;20052;-67
2021/10/12 08:48:57;;;;;;;42.65;27.65;;;10.40;99.90;;;;;;5094527;28;20464;-68
2021/10/12 08:51:25;;;;;;;47.25;29.95;;;10.50;99.90;;;;;;5077994;28;20460;-69
2021/10/12 08:53:51;;;;;;;39.50;27.60;;;10.50;99.90;;;;;;5095968;28;20024;-68
2021/10/12 08:56:18;;;;;;;46.78;29.80;;;10.60;99.90;;;;;;5095983;28;20043;-70
2021/10/12 08:58:43;;;;;;;47.58;30.45;;;10.70;99.90;;;;;;5095835;28;20093;-66
2021/10/12 09:01:11;;;;;;;53.65;33.85;;;10.80;99.90;;;;;;5077475;28;20028;-67
2021/10/12 09:04:22;;;;;;;65.82;37.53;;;11.00;99.90;;;;;;5095074;28;20353;-67
2021/10/12 09:06:32;;;;;;;72.88;43.60;;;11.10;99.90;;;;;;5087078;28;20124;-70
2021/10/12 09:09:05;;;;;;;45.70;27.23;;;11.30;99.90;;;;;;5095562;28;20492;-67
2021/10/12 09:11:33;;;;;;;51.03;28.88;;;11.50;99.90;;;;;;5095688;28;20069;-67
2021/10/12 09:14:07;;;;;;;51.08;33.22;;;11.70;99.90;;;;;;5095502;28;20024;-67
2021/10/12 09:16:38;;;;;;;47.88;29.52;;;11.80;99.90;;;;;;5095289;28;20056;-67
2021/10/12 09:19:06;;;;;;;48.22;29.58;;;11.90;99.90;;;;;;5095572;28;20077;-67
2021/10/12 09:21:44;;;;;;;47.35;29.00;;;12.00;99.90;;;;;;5095406;28;20475;-70
2021/10/12 09:24:24;;;;;;;41.35;26.08;;;12.20;99.90;;;;;;5095382;28;20047;-68
2021/10/12 09:26:50;;;;;;;37.63;25.40;;;12.30;99.90;;;;;;5077015;28;20028;-68
2021/10/12 09:29:24;;;;;;;38.03;24.20;;;12.20;99.90;;;;;;5095195;28;20601;-68
2021/10/12 09:31:53;;;;;;;38.13;25.15;;;12.10;99.90;;;;;;5095250;28;20115;-68
2021/10/12 09:34:19;;;;;;;209.70;123.70;;;12.10;99.90;;;;;;5077005;28;20070;-67
2021/10/12 09:36:47;;;;;;;34.78;24.35;;;12.10;99.90;;;;;;5076963;28;20024;-68
2021/10/12 09:39:16;;;;;;;43.47;27.13;;;12.10;99.90;;;;;;5076898;28;20424;-69
2021/10/12 09:41:43;;;;;;;41.00;27.33;;;12.10;99.90;;;;;;5095065;28;20028;-68
2021/10/12 09:44:17;;;;;;;46.22;27.05;;;12.10;99.90;;;;;;5076893;28;20028;-67
2021/10/12 09:46:48;;;;;;;43.67;26.83;;;11.90;99.90;;;;;;5077027;28;20376;-67
2021/10/12 09:49:19;;;;;;;38.65;26.20;;;11.70;99.90;;;;;;5094908;28;20036;-66
2021/10/12 09:51:55;;;;;;;47.60;26.83;;;11.90;99.90;;;;;;5094826;28;20028;-66
2021/10/12 09:54:35;;;;;;;37.25;22.92;;;12.00;99.90;;;;;;5076610;28;20115;-67
2021/10/12 09:57:06;;;;;;;42.72;25.95;;;12.00;99.90;;;;;;5094526;28;20406;-66
2021/10/12 09:59:34;;;;;;;37.93;24.87;;;11.90;99.90;;;;;;5094727;28;20110;-67
2021/10/12 10:02:01;;;;;;;38.70;24.45;;;12.00;99.90;;;;;;5082195;28;20102;-72
2021/10/12 10:04:29;;;;;;;38.75;23.42;;;11.90;99.90;;;;;;5097583;28;20020;-69
2021/10/12 10:07:06;;;;;;;37.78;23.83;;;11.90;99.90;;;;;;5093877;28;20449;-67
2021/10/12 10:09:35;;;;;;;40.08;24.92;;;12.10;99.90;;;;;;5094035;28;20115;-69
2021/10/12 10:12:02;;;;;;;36.55;24.23;;;12.00;99.90;;;;;;5076031;28;20035;-66
2021/10/12 10:14:28;;;;;;;41.53;24.20;;;12.10;99.90;;;;;;5075926;28;20028;-67
2021/10/12 10:16:57;;;;;;;45.33;25.77;;;12.10;99.90;;;;;;5093062;28;20046;-66
2021/10/12 10:19:27;;;;;;;40.85;24.25;;;12.20;99.90;;;;;;5094200;28;20031;-69
2021/10/12 10:21:53;;;;;;;41.03;25.52;;;12.30;99.90;;;;;;5094133;28;20472;-66
2021/10/12 10:24:34;;;;;;;39.53;24.48;;;12.40;99.90;;;;;;5094108;28;20028;-67
2021/10/12 10:27:00;;;;;;;46.33;26.55;;;12.50;99.90;;;;;;5075751;28;20027;-63
2021/10/12 10:29:37;;;;;;;38.92;24.25;;;12.60;99.90;;;;;;5093929;28;20129;-65
2021/10/12 10:32:16;;;;;;;38.80;24.08;;;12.50;99.90;;;;;;5075837;28;20030;-65
2021/10/12 10:34:46;;;;;;;35.28;24.15;;;12.30;99.90;;;;;;5075178;28;20040;-65
2021/10/12 10:37:15;;;;;;;45.63;30.38;;;12.20;99.90;;;;;;5093896;28;20078;-65
2021/10/12 10:39:45;;;;;;;39.35;24.70;;;12.40;99.90;;;;;;5093314;28;20032;-68
2021/10/12 10:42:43;;;;;;;41.20;23.98;;;12.60;99.90;;;;;;5092366;28;20046;-68
2021/10/12 10:45:12;;;;;;;42.83;27.48;;;12.70;99.90;;;;;;4994134;28;20068;-67
2021/10/12 10:47:40;;;;;;;38.95;24.45;;;13.10;99.90;;;;;;5011206;28;20050;-68
2021/10/12 10:50:30;;;;;;;44.30;24.55;;;13.20;99.90;;;;;;5011225;28;20042;-66
2021/10/12 10:53:01;;;;;;;38.78;25.15;;;13.30;99.90;;;;;;5011255;28;20029;-66
2021/10/12 10:55:31;;;;;;;40.45;24.75;;;13.20;99.90;;;;;;5011032;28;20041;-65
2021/10/12 10:58:04;;;;;;;40.22;24.77;;;13.20;99.90;;;;;;5011209;28;20037;-67
2021/10/12 11:00:38;;;;;;;44.53;25.88;;;12.90;99.90;;;;;;5011086;28;20153;-69
2021/10/12 11:03:04;;;;;;;38.80;24.27;;;13.00;99.90;;;;;;5011173;28;20025;-67
2021/10/12 11:05:39;;;;;;;33.35;23.77;;;13.00;99.90;;;;;;5010591;28;20030;-67
2021/10/12 11:08:07;;;;;;;32.83;22.73;;;12.80;99.90;;;;;;4993177;28;20029;-67
2021/10/12 11:10:33;;;;;;;32.38;22.83;;;12.70;99.90;;;;;;4994570;28;20061;-66
2021/10/12 11:12:59;;;;;;;36.55;23.73;;;12.80;99.90;;;;;;5011102;28;20068;-66
2021/10/12 11:15:25;;;;;;;33.50;22.10;;;12.90;99.90;;;;;;4994402;28;20075;-69
2021/10/12 11:18:23;;;;;;;33.45;21.88;;;13.00;99.90;;;;;;5010440;28;20046;-67
2021/10/12 11:20:55;;;;;;;38.65;23.70;;;13.30;99.90;;;;;;4993530;28;20033;-70
2021/10/12 11:23:27;;;;;;;34.90;23.40;;;13.40;99.90;;;;;;5013659;28;20037;-68
2021/10/12 11:25:54;;;;;;;;;;;13.40;99.90;;;;;;5029729;28;20121;-67
2021/10/12 11:28:23;;;;;;;41.78;24.85;;;13.40;99.90;;;;;;5029942;28;19908;-67
2021/10/12 11:30:49;;;;;;;38.35;22.33;;;13.30;99.90;;;;;;5030516;28;20053;-68
2021/10/12 11:33:15;;;;;;;43.72;24.85;;;13.60;99.90;;;;;;5030611;28;20029;-67
2021/10/12 11:35:42;;;;;;;34.08;23.70;;;13.50;99.90;;;;;;5030460;28;20119;-66
2021/10/12 11:38:08;;;;;;;37.00;21.42;;;13.50;99.90;;;;;;5030492;28;20042;-66
2021/10/12 11:40:35;;;;;;;40.20;22.20;;;13.30;99.90;;;;;;5030373;28;20065;-66
2021/10/12 11:43:09;;;;;;;43.17;25.73;;;13.20;99.90;;;;;;5030446;28;20544;-67
2021/10/12 11:45:35;;;;;;;36.75;24.65;;;13.10;99.90;;;;;;5030739;28;20475;-67
2021/10/12 11:48:01;;;;;;;33.60;23.98;;;13.10;99.90;;;;;;5030710;28;20429;-67
2021/10/12 11:50:27;;;;;;;40.35;26.00;;;13.10;99.90;;;;;;5030270;28;20092;-68
2021/10/12 11:52:54;;;;;;;45.35;24.33;;;13.00;99.90;;;;;;5030316;28;20474;-69
2021/10/12 11:55:26;;;;;;;38.60;25.25;;;13.00;99.90;;;;;;5017671;28;20029;-66
2021/10/12 11:57:52;;;;;;;42.92;26.63;;;12.90;99.90;;;;;;5092831;28;20483;-67
2021/10/12 12:00:43;;;;;;;41.85;26.60;;;13.10;99.90;;;;;;5092850;28;20115;-68
2021/10/12 12:03:18;;;;;;;40.88;27.60;;;13.20;99.90;;;;;;5093124;28;20372;-68
2021/10/12 12:05:51;;;;;;;39.05;26.27;;;13.10;99.90;;;;;;5092782;28;20028;-66
2021/10/12 12:08:18;;;;;;;40.53;24.92;;;13.10;99.90;;;;;;5092596;28;20035;-67
2021/10/12 12:10:44;;;;;;;50.67;28.05;;;13.00;99.90;;;;;;5087660;28;20112;-66
2021/10/12 12:13:10;;;;;;;42.92;23.65;;;12.90;99.90;;;;;;5092602;28;20070;-69
2021/10/12 12:15:40;;;;;;;41.35;26.75;;;12.80;99.90;;;;;;5092781;28;20468;-66
2021/10/12 12:18:14;;;;;;;45.60;27.10;;;12.70;99.90;;;;;;5092946;28;20067;-68
2021/10/12 12:20:56;;;;;;;35.42;22.98;;;12.90;99.90;;;;;;5092545;28;20027;-67
2021/10/12 12:23:33;;;;;;;44.10;26.42;;;12.70;99.90;;;;;;5092641;28;20031;-66
2021/10/12 12:25:59;;;;;;;42.88;27.45;;;12.60;99.90;;;;;;5092588;28;20113;-65
2021/10/12 12:28:26;;;;;;;42.90;26.13;;;12.60;99.90;;;;;;5074428;28;20388;-65
2021/10/12 12:30:52;;;;;;;42.05;26.88;;;12.60;99.90;;;;;;5092597;28;20032;-67
2021/10/12 12:33:18;;;;;;;45.20;27.92;;;12.60;99.90;;;;;;5092572;28;20082;-67
2021/10/12 12:35:46;;;;;;;39.53;25.90;;;12.70;99.90;;;;;;5092718;28;20020;-66
2021/10/12 12:38:21;;;;;;;47.30;30.15;;;12.90;99.90;;;;;;5092906;28;20016;-67
2021/10/12 12:40:50;;;;;;;38.22;23.60;;;13.00;99.90;;;;;;5096320;28;20031;-68
2021/10/12 12:43:18;;;;;;;43.13;24.33;;;13.10;99.90;;;;;;5096033;28;20074;-66
2021/10/12 12:45:45;;;;;;;38.25;23.70;;;13.40;99.90;;;;;;5095596;28;20081;-67
2021/10/12 12:48:24;;;;;;;40.92;23.50;;;;;;;;;;5096077;28;20024;-67
2021/10/12 12:51:00;;;;;;;37.22;21.83;;;13.60;99.90;;;;;;5096134;28;20032;-66
2021/10/12 12:53:43;;;;;;;38.65;22.65;;;14.60;99.90;;;;;;5095781;28;20028;-66